Aviation Digital Data Service (ADDS)

Output produced by METARs form (1606 UTC 15 December 2017)
found at http://aviationweather.gov/adds/metars/
 
METAR text: EDMA 151550Z 23008KT CAVOK 02/M02 Q0999
Conditions at: EDMA (AUGSBURG/MULHAUS, DE) observed 1550 UTC 15 December 2017
Temperature: 2.0°C (36°F)
Dewpoint: -2.0°C (28°F) [RH = 75%]
Pressure (altimeter): 29.50 inches Hg (999.0 mb)
Winds: from the SW (230 degrees) at 9 MPH (8 knots; 4.2 m/s)
Visibility: 6 or more miles (10+ km)
Ceiling: ceiling and visibility are OK
Clouds: unknown
Weather: no significant weather observed at this time

Forecast for: EDMA (AUGSBURG/MULHAUS, DE)
Text: TAF EDMA 151400Z 1515/1524 24010KT 9999 SCT025
Forecast period: 1500 to 1600 UTC 15 December 2017
Forecast type: FROM: standard forecast or significant change
Winds: from the WSW (240 degrees) at 12 MPH (10 knots; 5.2 m/s)
Visibility: 6 or more miles (10+ km)
Clouds: scattered clouds at 2500 feet AGL
Weather: no significant weather forecast for this period
Text: BECMG 1516/1518 23005KT
Forecast period: 1600 UTC 15 December 2017 to 0000 UTC 16 December 2017
Forecast type: BECOMING: Conditions expected to become as follows by 1800 UTC 15 December 2017
Winds: from the SW (230 degrees) at 6 MPH (5 knots; 2.6 m/s)
Visibility: 6 or more miles (10+ km)
Clouds: scattered clouds at 2500 feet AGL
Weather: no significant weather forecast for this period